sensor_id;sensor_type;location;lat;lon;timestamp;P1;durP1;ratioP1;P2;durP2;ratioP2
23470;SDS011;11908;50.806;4.424;2023-12-28T00:00:41;3.63;;;2.30;;
23470;SDS011;11908;50.806;4.424;2023-12-28T00:03:07;4.85;;;2.40;;
23470;SDS011;11908;50.806;4.424;2023-12-28T00:05:33;4.75;;;2.50;;
23470;SDS011;11908;50.806;4.424;2023-12-28T00:07:58;4.63;;;2.58;;
23470;SDS011;11908;50.806;4.424;2023-12-28T00:10:25;3.45;;;2.33;;
23470;SDS011;11908;50.806;4.424;2023-12-28T00:12:51;3.38;;;2.10;;
23470;SDS011;11908;50.806;4.424;2023-12-28T00:15:17;4.53;;;2.72;;
23470;SDS011;11908;50.806;4.424;2023-12-28T00:17:43;3.80;;;2.50;;
23470;SDS011;11908;50.806;4.424;2023-12-28T00:20:09;4.65;;;2.50;;
23470;SDS011;11908;50.806;4.424;2023-12-28T00:22:35;3.15;;;2.50;;
23470;SDS011;11908;50.806;4.424;2023-12-28T00:25:02;4.40;;;2.72;;
23470;SDS011;11908;50.806;4.424;2023-12-28T00:27:32;4.05;;;2.13;;
23470;SDS011;11908;50.806;4.424;2023-12-28T00:30:02;5.00;;;2.42;;
23470;SDS011;11908;50.806;4.424;2023-12-28T00:32:29;7.72;;;2.45;;
23470;SDS011;11908;50.806;4.424;2023-12-28T00:34:58;8.52;;;2.95;;
23470;SDS011;11908;50.806;4.424;2023-12-28T00:37:24;7.93;;;2.60;;
23470;SDS011;11908;50.806;4.424;2023-12-28T00:39:50;5.00;;;2.70;;
23470;SDS011;11908;50.806;4.424;2023-12-28T00:42:15;5.95;;;2.60;;
23470;SDS011;11908;50.806;4.424;2023-12-28T00:44:42;5.60;;;2.63;;
23470;SDS011;11908;50.806;4.424;2023-12-28T00:47:08;5.10;;;2.58;;
23470;SDS011;11908;50.806;4.424;2023-12-28T00:49:33;4.88;;;2.78;;
23470;SDS011;11908;50.806;4.424;2023-12-28T00:51:59;3.97;;;2.50;;
23470;SDS011;11908;50.806;4.424;2023-12-28T00:54:25;4.15;;;2.65;;
23470;SDS011;11908;50.806;4.424;2023-12-28T00:56:51;8.60;;;2.90;;
23470;SDS011;11908;50.806;4.424;2023-12-28T00:59:16;4.10;;;2.45;;
23470;SDS011;11908;50.806;4.424;2023-12-28T01:01:42;4.72;;;2.30;;
23470;SDS011;11908;50.806;4.424;2023-12-28T01:04:08;6.82;;;3.22;;
23470;SDS011;11908;50.806;4.424;2023-12-28T01:06:33;4.57;;;2.80;;
23470;SDS011;11908;50.806;4.424;2023-12-28T01:08:59;3.85;;;2.40;;
23470;SDS011;11908;50.806;4.424;2023-12-28T01:11:25;4.20;;;2.78;;
23470;SDS011;11908;50.806;4.424;2023-12-28T01:13:51;9.25;;;3.17;;
23470;SDS011;11908;50.806;4.424;2023-12-28T01:16:17;5.03;;;2.70;;
23470;SDS011;11908;50.806;4.424;2023-12-28T01:18:42;5.03;;;2.45;;
23470;SDS011;11908;50.806;4.424;2023-12-28T01:21:08;4.93;;;2.67;;
23470;SDS011;11908;50.806;4.424;2023-12-28T01:23:34;6.35;;;2.63;;
23470;SDS011;11908;50.806;4.424;2023-12-28T01:26:00;6.05;;;2.55;;
23470;SDS011;11908;50.806;4.424;2023-12-28T01:28:26;4.70;;;2.47;;
23470;SDS011;11908;50.806;4.424;2023-12-28T01:30:52;4.22;;;2.80;;
23470;SDS011;11908;50.806;4.424;2023-12-28T01:33:17;8.30;;;2.80;;
23470;SDS011;11908;50.806;4.424;2023-12-28T01:35:43;5.47;;;2.60;;
23470;SDS011;11908;50.806;4.424;2023-12-28T01:38:09;6.65;;;2.63;;
23470;SDS011;11908;50.806;4.424;2023-12-28T01:40:34;18.58;;;2.80;;
23470;SDS011;11908;50.806;4.424;2023-12-28T01:43:00;6.30;;;2.55;;
23470;SDS011;11908;50.806;4.424;2023-12-28T01:45:26;4.68;;;2.53;;
23470;SDS011;11908;50.806;4.424;2023-12-28T01:47:55;5.15;;;2.33;;
23470;SDS011;11908;50.806;4.424;2023-12-28T01:50:23;6.00;;;2.53;;
23470;SDS011;11908;50.806;4.424;2023-12-28T01:52:50;5.10;;;2.28;;
23470;SDS011;11908;50.806;4.424;2023-12-28T01:55:16;7.22;;;2.42;;
23470;SDS011;11908;50.806;4.424;2023-12-28T01:57:42;5.50;;;2.22;;
23470;SDS011;11908;50.806;4.424;2023-12-28T02:00:09;6.40;;;2.45;;
23470;SDS011;11908;50.806;4.424;2023-12-28T02:02:35;7.70;;;2.80;;
23470;SDS011;11908;50.806;4.424;2023-12-28T02:05:01;6.63;;;2.45;;
23470;SDS011;11908;50.806;4.424;2023-12-28T02:07:27;4.97;;;2.42;;
23470;SDS011;11908;50.806;4.424;2023-12-28T02:09:54;5.18;;;2.50;;
23470;SDS011;11908;50.806;4.424;2023-12-28T02:12:20;5.18;;;2.15;;
23470;SDS011;11908;50.806;4.424;2023-12-28T02:14:46;6.95;;;2.97;;
23470;SDS011;11908;50.806;4.424;2023-12-28T02:17:22;5.28;;;2.10;;
23470;SDS011;11908;50.806;4.424;2023-12-28T02:19:50;4.35;;;1.90;;
23470;SDS011;11908;50.806;4.424;2023-12-28T02:22:17;5.88;;;2.53;;
23470;SDS011;11908;50.806;4.424;2023-12-28T02:27:38;6.30;;;1.90;;
23470;SDS011;11908;50.806;4.424;2023-12-28T02:30:08;5.88;;;2.33;;
23470;SDS011;11908;50.806;4.424;2023-12-28T02:32:39;6.13;;;2.38;;
23470;SDS011;11908;50.806;4.424;2023-12-28T02:35:19;6.63;;;2.30;;
23470;SDS011;11908;50.806;4.424;2023-12-28T02:37:51;8.57;;;2.50;;
23470;SDS011;11908;50.806;4.424;2023-12-28T02:40:18;7.75;;;2.42;;
23470;SDS011;11908;50.806;4.424;2023-12-28T02:42:46;6.63;;;2.58;;
23470;SDS011;11908;50.806;4.424;2023-12-28T02:45:12;6.68;;;2.00;;
23470;SDS011;11908;50.806;4.424;2023-12-28T02:47:37;6.60;;;2.28;;
23470;SDS011;11908;50.806;4.424;2023-12-28T02:50:03;4.65;;;2.22;;
23470;SDS011;11908;50.806;4.424;2023-12-28T02:52:29;8.48;;;2.78;;
23470;SDS011;11908;50.806;4.424;2023-12-28T02:54:55;7.40;;;2.15;;
23470;SDS011;11908;50.806;4.424;2023-12-28T02:57:20;12.40;;;2.28;;
23470;SDS011;11908;50.806;4.424;2023-12-28T02:59:46;11.35;;;2.45;;
23470;SDS011;11908;50.806;4.424;2023-12-28T03:02:12;6.35;;;2.40;;
23470;SDS011;11908;50.806;4.424;2023-12-28T03:04:37;10.23;;;2.42;;
23470;SDS011;11908;50.806;4.424;2023-12-28T03:07:04;6.75;;;2.17;;
23470;SDS011;11908;50.806;4.424;2023-12-28T03:09:31;8.13;;;2.33;;
23470;SDS011;11908;50.806;4.424;2023-12-28T03:11:59;4.90;;;2.22;;
23470;SDS011;11908;50.806;4.424;2023-12-28T03:14:25;7.10;;;2.20;;
23470;SDS011;11908;50.806;4.424;2023-12-28T03:16:51;7.07;;;1.88;;
23470;SDS011;11908;50.806;4.424;2023-12-28T03:19:16;10.27;;;2.33;;
23470;SDS011;11908;50.806;4.424;2023-12-28T03:21:42;6.63;;;1.70;;
23470;SDS011;11908;50.806;4.424;2023-12-28T03:24:08;6.20;;;1.88;;
23470;SDS011;11908;50.806;4.424;2023-12-28T03:26:38;8.27;;;1.90;;
23470;SDS011;11908;50.806;4.424;2023-12-28T03:29:05;7.43;;;2.30;;
23470;SDS011;11908;50.806;4.424;2023-12-28T03:31:31;8.95;;;2.25;;
23470;SDS011;11908;50.806;4.424;2023-12-28T03:33:57;10.20;;;2.42;;
23470;SDS011;11908;50.806;4.424;2023-12-28T03:36:23;6.25;;;2.35;;
23470;SDS011;11908;50.806;4.424;2023-12-28T03:38:49;6.65;;;1.85;;
23470;SDS011;11908;50.806;4.424;2023-12-28T03:41:18;5.72;;;2.20;;
23470;SDS011;11908;50.806;4.424;2023-12-28T03:43:44;9.07;;;2.17;;
23470;SDS011;11908;50.806;4.424;2023-12-28T03:46:10;7.05;;;1.80;;
23470;SDS011;11908;50.806;4.424;2023-12-28T03:48:36;7.50;;;1.98;;
23470;SDS011;11908;50.806;4.424;2023-12-28T03:51:02;12.23;;;2.75;;
23470;SDS011;11908;50.806;4.424;2023-12-28T03:53:31;6.82;;;2.08;;
23470;SDS011;11908;50.806;4.424;2023-12-28T03:56:00;13.07;;;2.50;;
23470;SDS011;11908;50.806;4.424;2023-12-28T03:58:26;8.18;;;2.08;;
23470;SDS011;11908;50.806;4.424;2023-12-28T04:00:54;8.20;;;2.42;;
23470;SDS011;11908;50.806;4.424;2023-12-28T04:03:20;8.50;;;2.10;;
23470;SDS011;11908;50.806;4.424;2023-12-28T04:05:46;7.07;;;2.03;;
23470;SDS011;11908;50.806;4.424;2023-12-28T04:08:12;8.55;;;1.98;;
23470;SDS011;11908;50.806;4.424;2023-12-28T04:10:38;9.43;;;1.90;;
23470;SDS011;11908;50.806;4.424;2023-12-28T04:13:04;8.88;;;2.13;;
23470;SDS011;11908;50.806;4.424;2023-12-28T04:15:30;9.45;;;1.90;;
23470;SDS011;11908;50.806;4.424;2023-12-28T04:17:56;8.50;;;2.13;;
23470;SDS011;11908;50.806;4.424;2023-12-28T04:20:22;10.30;;;1.98;;
23470;SDS011;11908;50.806;4.424;2023-12-28T04:22:48;9.57;;;1.98;;
23470;SDS011;11908;50.806;4.424;2023-12-28T04:25:14;8.02;;;2.17;;
23470;SDS011;11908;50.806;4.424;2023-12-28T04:27:41;10.77;;;2.17;;
23470;SDS011;11908;50.806;4.424;2023-12-28T04:30:07;9.35;;;1.50;;
23470;SDS011;11908;50.806;4.424;2023-12-28T04:32:36;8.98;;;2.20;;
23470;SDS011;11908;50.806;4.424;2023-12-28T04:35:02;12.13;;;2.10;;
23470;SDS011;11908;50.806;4.424;2023-12-28T04:37:28;9.45;;;1.98;;
23470;SDS011;11908;50.806;4.424;2023-12-28T04:39:55;15.38;;;2.92;;
23470;SDS011;11908;50.806;4.424;2023-12-28T04:42:24;15.27;;;2.40;;
23470;SDS011;11908;50.806;4.424;2023-12-28T04:44:49;10.93;;;2.22;;
23470;SDS011;11908;50.806;4.424;2023-12-28T04:47:15;13.52;;;2.50;;
23470;SDS011;11908;50.806;4.424;2023-12-28T04:49:41;7.88;;;2.40;;
23470;SDS011;11908;50.806;4.424;2023-12-28T04:52:06;7.60;;;2.67;;
23470;SDS011;11908;50.806;4.424;2023-12-28T04:54:32;8.95;;;2.33;;
23470;SDS011;11908;50.806;4.424;2023-12-28T04:56:58;6.82;;;2.10;;
23470;SDS011;11908;50.806;4.424;2023-12-28T04:59:24;12.57;;;2.30;;
23470;SDS011;11908;50.806;4.424;2023-12-28T05:01:50;10.02;;;2.40;;
23470;SDS011;11908;50.806;4.424;2023-12-28T05:04:16;10.43;;;2.25;;
23470;SDS011;11908;50.806;4.424;2023-12-28T05:06:41;11.60;;;2.53;;
23470;SDS011;11908;50.806;4.424;2023-12-28T05:09:07;7.68;;;2.40;;
23470;SDS011;11908;50.806;4.424;2023-12-28T05:11:33;9.00;;;1.88;;
23470;SDS011;11908;50.806;4.424;2023-12-28T05:13:59;12.38;;;2.38;;
23470;SDS011;11908;50.806;4.424;2023-12-28T05:16:24;6.18;;;2.03;;
23470;SDS011;11908;50.806;4.424;2023-12-28T05:18:50;13.00;;;2.25;;
23470;SDS011;11908;50.806;4.424;2023-12-28T05:21:15;9.10;;;2.40;;
23470;SDS011;11908;50.806;4.424;2023-12-28T05:23:42;11.77;;;2.05;;
23470;SDS011;11908;50.806;4.424;2023-12-28T05:26:07;11.52;;;2.58;;
23470;SDS011;11908;50.806;4.424;2023-12-28T05:28:33;9.48;;;2.15;;
23470;SDS011;11908;50.806;4.424;2023-12-28T05:30:59;12.40;;;2.47;;
23470;SDS011;11908;50.806;4.424;2023-12-28T05:33:25;12.80;;;2.55;;
23470;SDS011;11908;50.806;4.424;2023-12-28T05:35:51;9.82;;;1.92;;
23470;SDS011;11908;50.806;4.424;2023-12-28T05:38:16;13.70;;;2.42;;
23470;SDS011;11908;50.806;4.424;2023-12-28T05:40:42;14.02;;;2.70;;
23470;SDS011;11908;50.806;4.424;2023-12-28T05:43:09;10.02;;;1.98;;
23470;SDS011;11908;50.806;4.424;2023-12-28T05:45:35;15.07;;;2.35;;
23470;SDS011;11908;50.806;4.424;2023-12-28T05:48:01;13.43;;;2.85;;
23470;SDS011;11908;50.806;4.424;2023-12-28T05:50:27;12.95;;;2.58;;
23470;SDS011;11908;50.806;4.424;2023-12-28T05:52:53;10.57;;;2.72;;
23470;SDS011;11908;50.806;4.424;2023-12-28T05:55:18;12.60;;;2.72;;
23470;SDS011;11908;50.806;4.424;2023-12-28T05:57:44;9.10;;;2.60;;
23470;SDS011;11908;50.806;4.424;2023-12-28T06:00:10;11.00;;;2.65;;
23470;SDS011;11908;50.806;4.424;2023-12-28T06:02:36;17.08;;;2.97;;
23470;SDS011;11908;50.806;4.424;2023-12-28T06:05:01;18.27;;;2.58;;
23470;SDS011;11908;50.806;4.424;2023-12-28T06:07:27;9.60;;;2.78;;
23470;SDS011;11908;50.806;4.424;2023-12-28T06:09:53;15.45;;;2.30;;
23470;SDS011;11908;50.806;4.424;2023-12-28T06:12:18;16.50;;;2.90;;
23470;SDS011;11908;50.806;4.424;2023-12-28T06:14:44;8.77;;;2.42;;
23470;SDS011;11908;50.806;4.424;2023-12-28T06:17:10;18.60;;;2.75;;
23470;SDS011;11908;50.806;4.424;2023-12-28T06:19:35;12.27;;;2.90;;
23470;SDS011;11908;50.806;4.424;2023-12-28T06:22:01;12.88;;;2.65;;
23470;SDS011;11908;50.806;4.424;2023-12-28T06:24:27;10.75;;;2.33;;
23470;SDS011;11908;50.806;4.424;2023-12-28T06:26:52;12.50;;;2.67;;
23470;SDS011;11908;50.806;4.424;2023-12-28T06:29:18;16.73;;;3.00;;
23470;SDS011;11908;50.806;4.424;2023-12-28T06:31:44;10.95;;;2.30;;
23470;SDS011;11908;50.806;4.424;2023-12-28T06:34:10;16.13;;;4.25;;
23470;SDS011;11908;50.806;4.424;2023-12-28T06:36:35;14.35;;;2.80;;
23470;SDS011;11908;50.806;4.424;2023-12-28T06:39:01;9.68;;;2.38;;
23470;SDS011;11908;50.806;4.424;2023-12-28T06:41:27;13.52;;;2.50;;
23470;SDS011;11908;50.806;4.424;2023-12-28T06:43:52;16.70;;;2.38;;
23470;SDS011;11908;50.806;4.424;2023-12-28T06:46:18;10.68;;;2.42;;
23470;SDS011;11908;50.806;4.424;2023-12-28T06:48:44;11.52;;;2.15;;
23470;SDS011;11908;50.806;4.424;2023-12-28T06:51:19;15.25;;;3.05;;
23470;SDS011;11908;50.806;4.424;2023-12-28T06:53:48;18.38;;;3.15;;
23470;SDS011;11908;50.806;4.424;2023-12-28T06:56:14;16.88;;;2.58;;
23470;SDS011;11908;50.806;4.424;2023-12-28T06:58:40;13.73;;;2.38;;
23470;SDS011;11908;50.806;4.424;2023-12-28T07:01:06;15.25;;;3.00;;
23470;SDS011;11908;50.806;4.424;2023-12-28T07:03:32;9.45;;;2.47;;
23470;SDS011;11908;50.806;4.424;2023-12-28T07:06:01;13.95;;;3.10;;
23470;SDS011;11908;50.806;4.424;2023-12-28T07:08:28;18.05;;;3.25;;
23470;SDS011;11908;50.806;4.424;2023-12-28T07:10:54;16.58;;;3.17;;
23470;SDS011;11908;50.806;4.424;2023-12-28T07:13:19;20.35;;;3.30;;
23470;SDS011;11908;50.806;4.424;2023-12-28T07:15:45;20.83;;;3.13;;
23470;SDS011;11908;50.806;4.424;2023-12-28T07:18:11;13.82;;;3.47;;
23470;SDS011;11908;50.806;4.424;2023-12-28T07:20:37;20.42;;;3.00;;
23470;SDS011;11908;50.806;4.424;2023-12-28T07:23:03;17.85;;;3.20;;
23470;SDS011;11908;50.806;4.424;2023-12-28T07:25:29;18.77;;;4.25;;
23470;SDS011;11908;50.806;4.424;2023-12-28T07:27:54;14.70;;;4.03;;
23470;SDS011;11908;50.806;4.424;2023-12-28T07:30:20;14.13;;;2.78;;
23470;SDS011;11908;50.806;4.424;2023-12-28T07:32:46;13.07;;;3.20;;
23470;SDS011;11908;50.806;4.424;2023-12-28T07:35:11;20.08;;;4.00;;
23470;SDS011;11908;50.806;4.424;2023-12-28T07:37:37;15.38;;;3.42;;
23470;SDS011;11908;50.806;4.424;2023-12-28T07:40:03;16.88;;;3.65;;
23470;SDS011;11908;50.806;4.424;2023-12-28T07:42:29;16.25;;;2.95;;
23470;SDS011;11908;50.806;4.424;2023-12-28T07:44:55;17.05;;;4.57;;
23470;SDS011;11908;50.806;4.424;2023-12-28T07:47:21;12.02;;;2.53;;
23470;SDS011;11908;50.806;4.424;2023-12-28T07:49:46;16.60;;;2.42;;
23470;SDS011;11908;50.806;4.424;2023-12-28T07:52:12;15.40;;;3.17;;
23470;SDS011;11908;50.806;4.424;2023-12-28T07:54:38;18.98;;;4.10;;
23470;SDS011;11908;50.806;4.424;2023-12-28T07:57:03;16.92;;;3.63;;
23470;SDS011;11908;50.806;4.424;2023-12-28T07:59:29;19.08;;;3.00;;
23470;SDS011;11908;50.806;4.424;2023-12-28T08:01:55;18.73;;;3.17;;
23470;SDS011;11908;50.806;4.424;2023-12-28T08:04:22;19.08;;;3.20;;
23470;SDS011;11908;50.806;4.424;2023-12-28T08:06:48;17.63;;;3.42;;
23470;SDS011;11908;50.806;4.424;2023-12-28T08:09:13;16.63;;;3.47;;
23470;SDS011;11908;50.806;4.424;2023-12-28T08:11:39;18.02;;;3.30;;
23470;SDS011;11908;50.806;4.424;2023-12-28T08:14:05;14.52;;;2.78;;
23470;SDS011;11908;50.806;4.424;2023-12-28T08:16:30;16.02;;;3.72;;
23470;SDS011;11908;50.806;4.424;2023-12-28T08:18:56;20.20;;;3.10;;
23470;SDS011;11908;50.806;4.424;2023-12-28T08:21:22;18.58;;;4.18;;
23470;SDS011;11908;50.806;4.424;2023-12-28T08:23:48;13.50;;;3.05;;
23470;SDS011;11908;50.806;4.424;2023-12-28T08:26:13;15.18;;;3.28;;
23470;SDS011;11908;50.806;4.424;2023-12-28T08:28:39;15.40;;;2.50;;
23470;SDS011;11908;50.806;4.424;2023-12-28T08:31:05;14.00;;;3.40;;
23470;SDS011;11908;50.806;4.424;2023-12-28T08:33:33;21.08;;;4.03;;
23470;SDS011;11908;50.806;4.424;2023-12-28T08:36:00;18.05;;;2.90;;
23470;SDS011;11908;50.806;4.424;2023-12-28T08:38:27;19.92;;;3.95;;
23470;SDS011;11908;50.806;4.424;2023-12-28T08:40:53;19.27;;;3.05;;
23470;SDS011;11908;50.806;4.424;2023-12-28T08:43:19;14.18;;;3.40;;
23470;SDS011;11908;50.806;4.424;2023-12-28T08:45:45;17.95;;;2.65;;
23470;SDS011;11908;50.806;4.424;2023-12-28T08:48:10;18.65;;;3.72;;
23470;SDS011;11908;50.806;4.424;2023-12-28T08:50:36;18.45;;;2.92;;
23470;SDS011;11908;50.806;4.424;2023-12-28T08:53:02;16.45;;;3.95;;
23470;SDS011;11908;50.806;4.424;2023-12-28T08:55:28;15.25;;;3.65;;
23470;SDS011;11908;50.806;4.424;2023-12-28T08:57:53;18.98;;;3.63;;
23470;SDS011;11908;50.806;4.424;2023-12-28T09:00:19;21.52;;;3.47;;
23470;SDS011;11908;50.806;4.424;2023-12-28T09:02:45;12.90;;;3.50;;
23470;SDS011;11908;50.806;4.424;2023-12-28T09:05:10;28.83;;;8.85;;
23470;SDS011;11908;50.806;4.424;2023-12-28T09:07:36;15.52;;;3.22;;
23470;SDS011;11908;50.806;4.424;2023-12-28T09:10:07;14.75;;;3.42;;
23470;SDS011;11908;50.806;4.424;2023-12-28T09:12:39;16.35;;;2.92;;
23470;SDS011;11908;50.806;4.424;2023-12-28T09:15:05;15.00;;;2.58;;
23470;SDS011;11908;50.806;4.424;2023-12-28T09:17:32;13.30;;;2.80;;
23470;SDS011;11908;50.806;4.424;2023-12-28T09:19:58;19.40;;;3.78;;
23470;SDS011;11908;50.806;4.424;2023-12-28T09:22:24;18.30;;;2.78;;
23470;SDS011;11908;50.806;4.424;2023-12-28T09:24:49;17.65;;;2.88;;
23470;SDS011;11908;50.806;4.424;2023-12-28T09:27:16;17.65;;;2.72;;
23470;SDS011;11908;50.806;4.424;2023-12-28T09:29:41;19.80;;;2.90;;
23470;SDS011;11908;50.806;4.424;2023-12-28T09:32:07;13.30;;;2.80;;
23470;SDS011;11908;50.806;4.424;2023-12-28T09:34:33;18.42;;;3.35;;
23470;SDS011;11908;50.806;4.424;2023-12-28T09:36:58;15.65;;;2.50;;
23470;SDS011;11908;50.806;4.424;2023-12-28T09:39:24;15.30;;;3.22;;
23470;SDS011;11908;50.806;4.424;2023-12-28T09:41:54;17.65;;;3.92;;
23470;SDS011;11908;50.806;4.424;2023-12-28T09:44:24;12.40;;;2.60;;
23470;SDS011;11908;50.806;4.424;2023-12-28T09:46:50;10.65;;;2.92;;
23470;SDS011;11908;50.806;4.424;2023-12-28T09:49:18;12.20;;;2.35;;
23470;SDS011;11908;50.806;4.424;2023-12-28T09:51:46;15.35;;;2.88;;
23470;SDS011;11908;50.806;4.424;2023-12-28T09:54:12;12.82;;;2.90;;
23470;SDS011;11908;50.806;4.424;2023-12-28T09:56:38;14.43;;;2.67;;
23470;SDS011;11908;50.806;4.424;2023-12-28T09:59:06;20.67;;;2.60;;
23470;SDS011;11908;50.806;4.424;2023-12-28T10:01:32;19.75;;;4.10;;
23470;SDS011;11908;50.806;4.424;2023-12-28T10:04:00;13.40;;;3.05;;
23470;SDS011;11908;50.806;4.424;2023-12-28T10:06:28;17.30;;;3.35;;
23470;SDS011;11908;50.806;4.424;2023-12-28T10:08:53;15.38;;;3.28;;
23470;SDS011;11908;50.806;4.424;2023-12-28T10:11:20;15.77;;;3.00;;
23470;SDS011;11908;50.806;4.424;2023-12-28T10:13:48;23.30;;;3.60;;
23470;SDS011;11908;50.806;4.424;2023-12-28T10:16:15;17.45;;;3.15;;
23470;SDS011;11908;50.806;4.424;2023-12-28T10:18:41;19.60;;;3.15;;
23470;SDS011;11908;50.806;4.424;2023-12-28T10:21:07;13.30;;;2.80;;
23470;SDS011;11908;50.806;4.424;2023-12-28T10:23:33;15.40;;;2.55;;
23470;SDS011;11908;50.806;4.424;2023-12-28T10:25:59;23.40;;;3.17;;
23470;SDS011;11908;50.806;4.424;2023-12-28T10:28:25;14.02;;;2.30;;
23470;SDS011;11908;50.806;4.424;2023-12-28T10:30:55;16.13;;;2.70;;
23470;SDS011;11908;50.806;4.424;2023-12-28T10:33:23;17.45;;;2.80;;
23470;SDS011;11908;50.806;4.424;2023-12-28T10:35:52;14.55;;;2.70;;
23470;SDS011;11908;50.806;4.424;2023-12-28T10:38:22;17.83;;;2.90;;
23470;SDS011;11908;50.806;4.424;2023-12-28T10:40:50;16.67;;;3.35;;
23470;SDS011;11908;50.806;4.424;2023-12-28T10:43:17;17.08;;;3.25;;
23470;SDS011;11908;50.806;4.424;2023-12-28T10:45:47;14.35;;;2.78;;
23470;SDS011;11908;50.806;4.424;2023-12-28T10:48:18;13.43;;;2.67;;
23470;SDS011;11908;50.806;4.424;2023-12-28T10:50:53;21.50;;;3.17;;
23470;SDS011;11908;50.806;4.424;2023-12-28T10:56:14;15.02;;;2.60;;
23470;SDS011;11908;50.806;4.424;2023-12-28T10:58:48;20.30;;;3.22;;
23470;SDS011;11908;50.806;4.424;2023-12-28T11:01:28;19.30;;;2.78;;
23470;SDS011;11908;50.806;4.424;2023-12-28T11:04:02;13.05;;;2.65;;
23470;SDS011;11908;50.806;4.424;2023-12-28T11:07:03;20.90;;;3.03;;
23470;SDS011;11908;50.806;4.424;2023-12-28T11:09:32;15.02;;;3.25;;
23470;SDS011;11908;50.806;4.424;2023-12-28T11:11:59;13.05;;;2.90;;
23470;SDS011;11908;50.806;4.424;2023-12-28T11:14:27;17.13;;;2.80;;
23470;SDS011;11908;50.806;4.424;2023-12-28T11:16:53;15.30;;;2.40;;
23470;SDS011;11908;50.806;4.424;2023-12-28T11:19:20;17.75;;;2.90;;
23470;SDS011;11908;50.806;4.424;2023-12-28T11:21:50;14.30;;;2.60;;
23470;SDS011;11908;50.806;4.424;2023-12-28T11:24:17;17.88;;;3.17;;
23470;SDS011;11908;50.806;4.424;2023-12-28T11:26:44;19.27;;;3.47;;
23470;SDS011;11908;50.806;4.424;2023-12-28T11:29:18;16.83;;;2.80;;
23470;SDS011;11908;50.806;4.424;2023-12-28T11:31:44;14.02;;;2.58;;
23470;SDS011;11908;50.806;4.424;2023-12-28T11:34:16;21.45;;;3.63;;
23470;SDS011;11908;50.806;4.424;2023-12-28T11:36:51;15.85;;;2.60;;
23470;SDS011;11908;50.806;4.424;2023-12-28T11:39:20;19.25;;;3.42;;
23470;SDS011;11908;50.806;4.424;2023-12-28T11:42:00;16.85;;;2.83;;
23470;SDS011;11908;50.806;4.424;2023-12-28T11:44:29;12.15;;;2.42;;
23470;SDS011;11908;50.806;4.424;2023-12-28T11:46:56;20.15;;;3.28;;
23470;SDS011;11908;50.806;4.424;2023-12-28T11:49:25;16.08;;;3.05;;
23470;SDS011;11908;50.806;4.424;2023-12-28T11:51:56;17.45;;;3.08;;
23470;SDS011;11908;50.806;4.424;2023-12-28T11:54:26;13.82;;;2.22;;
23470;SDS011;11908;50.806;4.424;2023-12-28T11:56:52;21.92;;;3.33;;
23470;SDS011;11908;50.806;4.424;2023-12-28T11:59:21;18.20;;;2.72;;
23470;SDS011;11908;50.806;4.424;2023-12-28T12:01:52;15.43;;;3.22;;
23470;SDS011;11908;50.806;4.424;2023-12-28T12:04:20;18.77;;;3.28;;
23470;SDS011;11908;50.806;4.424;2023-12-28T12:06:46;16.35;;;3.38;;
23470;SDS011;11908;50.806;4.424;2023-12-28T12:09:13;15.82;;;3.25;;
23470;SDS011;11908;50.806;4.424;2023-12-28T12:11:43;18.13;;;2.97;;
23470;SDS011;11908;50.806;4.424;2023-12-28T12:14:09;16.10;;;2.65;;
23470;SDS011;11908;50.806;4.424;2023-12-28T12:16:36;14.95;;;3.00;;
23470;SDS011;11908;50.806;4.424;2023-12-28T12:19:05;21.95;;;3.70;;
23470;SDS011;11908;50.806;4.424;2023-12-28T12:21:34;18.13;;;2.80;;
23470;SDS011;11908;50.806;4.424;2023-12-28T12:24:00;15.98;;;2.70;;
23470;SDS011;11908;50.806;4.424;2023-12-28T12:26:26;18.55;;;2.80;;
23470;SDS011;11908;50.806;4.424;2023-12-28T12:28:52;13.13;;;2.53;;
23470;SDS011;11908;50.806;4.424;2023-12-28T12:31:18;17.58;;;3.05;;
23470;SDS011;11908;50.806;4.424;2023-12-28T12:33:44;19.27;;;3.50;;
23470;SDS011;11908;50.806;4.424;2023-12-28T12:36:10;12.02;;;2.75;;
23470;SDS011;11908;50.806;4.424;2023-12-28T12:38:36;20.02;;;3.10;;
23470;SDS011;11908;50.806;4.424;2023-12-28T12:41:01;20.38;;;3.28;;
23470;SDS011;11908;50.806;4.424;2023-12-28T12:43:28;16.52;;;3.15;;
23470;SDS011;11908;50.806;4.424;2023-12-28T12:45:54;16.63;;;2.80;;
23470;SDS011;11908;50.806;4.424;2023-12-28T12:48:20;20.38;;;4.03;;
23470;SDS011;11908;50.806;4.424;2023-12-28T12:50:45;18.05;;;2.55;;
23470;SDS011;11908;50.806;4.424;2023-12-28T12:53:11;17.42;;;2.72;;
23470;SDS011;11908;50.806;4.424;2023-12-28T12:55:37;12.27;;;2.53;;
23470;SDS011;11908;50.806;4.424;2023-12-28T12:58:04;15.52;;;2.67;;
23470;SDS011;11908;50.806;4.424;2023-12-28T13:00:30;19.92;;;2.90;;
23470;SDS011;11908;50.806;4.424;2023-12-28T13:02:58;12.57;;;2.67;;
23470;SDS011;11908;50.806;4.424;2023-12-28T13:05:24;14.05;;;2.55;;
23470;SDS011;11908;50.806;4.424;2023-12-28T13:07:53;15.98;;;2.22;;
23470;SDS011;11908;50.806;4.424;2023-12-28T13:10:19;17.70;;;3.10;;
23470;SDS011;11908;50.806;4.424;2023-12-28T13:12:45;12.38;;;2.50;;
23470;SDS011;11908;50.806;4.424;2023-12-28T13:15:11;17.25;;;2.85;;
23470;SDS011;11908;50.806;4.424;2023-12-28T13:17:37;14.48;;;2.83;;
23470;SDS011;11908;50.806;4.424;2023-12-28T13:20:03;11.45;;;2.28;;
23470;SDS011;11908;50.806;4.424;2023-12-28T13:22:33;16.17;;;3.03;;
23470;SDS011;11908;50.806;4.424;2023-12-28T13:24:59;13.50;;;2.60;;
23470;SDS011;11908;50.806;4.424;2023-12-28T13:27:26;11.63;;;2.10;;
23470;SDS011;11908;50.806;4.424;2023-12-28T13:29:53;15.52;;;2.33;;
23470;SDS011;11908;50.806;4.424;2023-12-28T13:32:19;16.95;;;3.03;;
23470;SDS011;11908;50.806;4.424;2023-12-28T13:34:46;19.92;;;3.05;;
23470;SDS011;11908;50.806;4.424;2023-12-28T13:37:12;22.60;;;3.58;;
23470;SDS011;11908;50.806;4.424;2023-12-28T13:39:37;15.13;;;2.58;;
23470;SDS011;11908;50.806;4.424;2023-12-28T13:42:06;17.58;;;3.53;;
23470;SDS011;11908;50.806;4.424;2023-12-28T13:44:33;7.82;;;2.10;;
23470;SDS011;11908;50.806;4.424;2023-12-28T13:47:00;14.65;;;2.78;;
23470;SDS011;11908;50.806;4.424;2023-12-28T13:49:26;12.80;;;2.25;;
23470;SDS011;11908;50.806;4.424;2023-12-28T13:51:52;20.63;;;2.90;;
23470;SDS011;11908;50.806;4.424;2023-12-28T13:54:18;15.95;;;2.53;;
23470;SDS011;11908;50.806;4.424;2023-12-28T13:56:46;17.75;;;2.33;;
23470;SDS011;11908;50.806;4.424;2023-12-28T13:59:12;14.20;;;2.83;;
23470;SDS011;11908;50.806;4.424;2023-12-28T14:01:38;13.52;;;2.10;;
23470;SDS011;11908;50.806;4.424;2023-12-28T14:04:04;16.27;;;3.00;;
23470;SDS011;11908;50.806;4.424;2023-12-28T14:06:30;16.38;;;3.10;;
23470;SDS011;11908;50.806;4.424;2023-12-28T14:08:56;16.38;;;2.38;;
23470;SDS011;11908;50.806;4.424;2023-12-28T14:11:22;9.65;;;1.90;;
23470;SDS011;11908;50.806;4.424;2023-12-28T14:13:49;19.13;;;2.97;;
23470;SDS011;11908;50.806;4.424;2023-12-28T14:16:14;12.77;;;2.42;;
23470;SDS011;11908;50.806;4.424;2023-12-28T14:18:40;16.63;;;2.30;;
23470;SDS011;11908;50.806;4.424;2023-12-28T14:21:08;15.68;;;2.60;;
23470;SDS011;11908;50.806;4.424;2023-12-28T14:23:34;15.82;;;2.35;;
23470;SDS011;11908;50.806;4.424;2023-12-28T14:26:02;8.10;;;2.47;;
23470;SDS011;11908;50.806;4.424;2023-12-28T14:28:34;16.75;;;2.65;;
23470;SDS011;11908;50.806;4.424;2023-12-28T14:31:01;15.73;;;3.03;;
23470;SDS011;11908;50.806;4.424;2023-12-28T14:33:27;13.30;;;2.65;;
23470;SDS011;11908;50.806;4.424;2023-12-28T14:35:53;12.15;;;2.60;;
23470;SDS011;11908;50.806;4.424;2023-12-28T14:38:19;15.13;;;2.25;;
23470;SDS011;11908;50.806;4.424;2023-12-28T14:40:45;15.63;;;2.90;;